sensor_id;sensor_type;location;lat;lon;timestamp;temperature;humidity
35894;DHT22;21994;48.204;16.516;2023-07-24T00:01:23;21.20;99.90
35894;DHT22;21994;48.204;16.516;2023-07-24T00:03:48;21.20;99.90
35894;DHT22;21994;48.204;16.516;2023-07-24T00:06:14;21.10;99.90
35894;DHT22;21994;48.204;16.516;2023-07-24T00:08:40;21.00;99.90
35894;DHT22;21994;48.204;16.516;2023-07-24T00:11:09;20.90;99.90
35894;DHT22;21994;48.204;16.516;2023-07-24T00:13:35;20.80;99.90
35894;DHT22;21994;48.204;16.516;2023-07-24T00:16:06;20.70;99.90
35894;DHT22;21994;48.204;16.516;2023-07-24T00:18:33;20.60;99.90
35894;DHT22;21994;48.204;16.516;2023-07-24T00:20:59;20.60;99.90
35894;DHT22;21994;48.204;16.516;2023-07-24T00:23:25;20.50;99.90
35894;DHT22;21994;48.204;16.516;2023-07-24T00:25:51;20.40;99.90
35894;DHT22;21994;48.204;16.516;2023-07-24T00:28:17;20.30;99.90
35894;DHT22;21994;48.204;16.516;2023-07-24T00:30:43;20.20;99.90
35894;DHT22;21994;48.204;16.516;2023-07-24T00:33:08;20.20;99.90
35894;DHT22;21994;48.204;16.516;2023-07-24T00:35:34;20.20;99.90
35894;DHT22;21994;48.204;16.516;2023-07-24T00:38:00;20.10;99.90
35894;DHT22;21994;48.204;16.516;2023-07-24T00:40:26;20.10;99.90
35894;DHT22;21994;48.204;16.516;2023-07-24T00:42:52;20.00;99.90
35894;DHT22;21994;48.204;16.516;2023-07-24T00:45:18;19.90;99.90
35894;DHT22;21994;48.204;16.516;2023-07-24T00:47:45;19.80;99.90
35894;DHT22;21994;48.204;16.516;2023-07-24T00:50:11;19.80;99.90
35894;DHT22;21994;48.204;16.516;2023-07-24T00:52:38;19.80;99.90
35894;DHT22;21994;48.204;16.516;2023-07-24T00:55:05;19.80;99.90
35894;DHT22;21994;48.204;16.516;2023-07-24T00:57:32;19.80;99.90
35894;DHT22;21994;48.204;16.516;2023-07-24T00:59:59;19.70;99.90
35894;DHT22;21994;48.204;16.516;2023-07-24T01:02:25;19.70;99.90
35894;DHT22;21994;48.204;16.516;2023-07-24T01:04:51;19.60;99.90
35894;DHT22;21994;48.204;16.516;2023-07-24T01:07:17;19.60;99.90
35894;DHT22;21994;48.204;16.516;2023-07-24T01:09:43;19.60;99.90
35894;DHT22;21994;48.204;16.516;2023-07-24T01:12:16;19.50;99.90
35894;DHT22;21994;48.204;16.516;2023-07-24T01:14:52;19.50;99.90
35894;DHT22;21994;48.204;16.516;2023-07-24T01:17:24;19.50;99.90
35894;DHT22;21994;48.204;16.516;2023-07-24T01:19:55;19.40;99.90
35894;DHT22;21994;48.204;16.516;2023-07-24T01:27:43;19.20;99.90
35894;DHT22;21994;48.204;16.516;2023-07-24T01:30:11;19.20;99.90
35894;DHT22;21994;48.204;16.516;2023-07-24T01:32:38;19.20;99.90
35894;DHT22;21994;48.204;16.516;2023-07-24T01:35:14;19.10;99.90
35894;DHT22;21994;48.204;16.516;2023-07-24T01:37:41;19.10;99.90
35894;DHT22;21994;48.204;16.516;2023-07-24T01:40:11;19.00;99.90
35894;DHT22;21994;48.204;16.516;2023-07-24T01:42:38;19.00;99.90
35894;DHT22;21994;48.204;16.516;2023-07-24T01:45:05;19.00;99.90
35894;DHT22;21994;48.204;16.516;2023-07-24T01:47:32;18.90;99.90
35894;DHT22;21994;48.204;16.516;2023-07-24T01:49:58;18.80;99.90
35894;DHT22;21994;48.204;16.516;2023-07-24T01:52:25;18.80;99.90
35894;DHT22;21994;48.204;16.516;2023-07-24T01:54:51;18.80;99.90
35894;DHT22;21994;48.204;16.516;2023-07-24T01:57:17;18.70;99.90
35894;DHT22;21994;48.204;16.516;2023-07-24T01:59:43;18.70;99.90
35894;DHT22;21994;48.204;16.516;2023-07-24T02:02:10;18.70;99.90
35894;DHT22;21994;48.204;16.516;2023-07-24T02:04:36;18.60;99.90
35894;DHT22;21994;48.204;16.516;2023-07-24T02:07:02;18.60;99.90
35894;DHT22;21994;48.204;16.516;2023-07-24T02:09:28;18.60;99.90
35894;DHT22;21994;48.204;16.516;2023-07-24T02:11:54;18.50;99.90
35894;DHT22;21994;48.204;16.516;2023-07-24T02:14:20;18.60;99.90
35894;DHT22;21994;48.204;16.516;2023-07-24T02:16:46;18.50;99.90
35894;DHT22;21994;48.204;16.516;2023-07-24T02:19:12;18.50;99.90
35894;DHT22;21994;48.204;16.516;2023-07-24T02:21:38;18.50;99.90
35894;DHT22;21994;48.204;16.516;2023-07-24T02:24:06;18.50;99.90
35894;DHT22;21994;48.204;16.516;2023-07-24T02:26:32;18.50;99.90
35894;DHT22;21994;48.204;16.516;2023-07-24T02:28:57;18.40;99.90
35894;DHT22;21994;48.204;16.516;2023-07-24T02:31:23;18.40;99.90
35894;DHT22;21994;48.204;16.516;2023-07-24T02:33:49;18.30;99.90
35894;DHT22;21994;48.204;16.516;2023-07-24T02:36:15;18.30;99.90
35894;DHT22;21994;48.204;16.516;2023-07-24T02:38:41;18.20;99.90
35894;DHT22;21994;48.204;16.516;2023-07-24T02:41:07;18.30;99.90
35894;DHT22;21994;48.204;16.516;2023-07-24T02:43:33;18.20;99.90
35894;DHT22;21994;48.204;16.516;2023-07-24T02:46:02;18.20;99.90
35894;DHT22;21994;48.204;16.516;2023-07-24T02:48:28;18.20;99.90
35894;DHT22;21994;48.204;16.516;2023-07-24T02:50:55;18.20;99.90
35894;DHT22;21994;48.204;16.516;2023-07-24T02:53:21;18.10;99.90
35894;DHT22;21994;48.204;16.516;2023-07-24T02:55:46;18.10;99.90
35894;DHT22;21994;48.204;16.516;2023-07-24T02:58:13;18.00;99.90
35894;DHT22;21994;48.204;16.516;2023-07-24T03:00:40;18.00;99.90
35894;DHT22;21994;48.204;16.516;2023-07-24T03:03:06;18.00;99.90
35894;DHT22;21994;48.204;16.516;2023-07-24T03:05:33;17.90;99.90
35894;DHT22;21994;48.204;16.516;2023-07-24T03:08:00;17.80;99.90
35894;DHT22;21994;48.204;16.516;2023-07-24T03:10:26;17.90;99.90
35894;DHT22;21994;48.204;16.516;2023-07-24T03:12:52;17.80;99.90
35894;DHT22;21994;48.204;16.516;2023-07-24T03:15:19;17.80;99.90
35894;DHT22;21994;48.204;16.516;2023-07-24T03:17:45;17.80;99.90
35894;DHT22;21994;48.204;16.516;2023-07-24T03:20:17;17.70;99.90
35894;DHT22;21994;48.204;16.516;2023-07-24T03:22:45;17.70;99.90
35894;DHT22;21994;48.204;16.516;2023-07-24T03:25:11;17.70;99.90
35894;DHT22;21994;48.204;16.516;2023-07-24T03:27:37;17.70;99.90
35894;DHT22;21994;48.204;16.516;2023-07-24T03:30:03;17.60;99.90
35894;DHT22;21994;48.204;16.516;2023-07-24T03:32:29;17.60;99.90
35894;DHT22;21994;48.204;16.516;2023-07-24T03:34:55;17.60;99.90
35894;DHT22;21994;48.204;16.516;2023-07-24T03:37:21;17.60;99.90
35894;DHT22;21994;48.204;16.516;2023-07-24T03:39:47;17.60;99.90
35894;DHT22;21994;48.204;16.516;2023-07-24T03:42:27;17.60;99.90
35894;DHT22;21994;48.204;16.516;2023-07-24T03:44:54;17.60;99.90
35894;DHT22;21994;48.204;16.516;2023-07-24T03:47:21;17.60;99.90
35894;DHT22;21994;48.204;16.516;2023-07-24T03:49:47;17.60;99.90
35894;DHT22;21994;48.204;16.516;2023-07-24T03:52:12;17.70;99.90
35894;DHT22;21994;48.204;16.516;2023-07-24T03:54:38;17.70;99.90
35894;DHT22;21994;48.204;16.516;2023-07-24T03:57:04;17.70;99.90
35894;DHT22;21994;48.204;16.516;2023-07-24T03:59:30;17.80;99.90
35894;DHT22;21994;48.204;16.516;2023-07-24T04:01:57;17.80;99.90
35894;DHT22;21994;48.204;16.516;2023-07-24T04:04:23;17.90;99.90
35894;DHT22;21994;48.204;16.516;2023-07-24T04:06:50;18.00;99.90
35894;DHT22;21994;48.204;16.516;2023-07-24T04:09:16;18.10;99.90
35894;DHT22;21994;48.204;16.516;2023-07-24T04:11:45;18.20;99.90
35894;DHT22;21994;48.204;16.516;2023-07-24T04:14:11;18.30;99.90
35894;DHT22;21994;48.204;16.516;2023-07-24T04:16:37;18.30;99.90
35894;DHT22;21994;48.204;16.516;2023-07-24T04:19:03;18.40;99.90
35894;DHT22;21994;48.204;16.516;2023-07-24T04:21:29;18.50;99.90
35894;DHT22;21994;48.204;16.516;2023-07-24T04:23:55;18.50;99.90
35894;DHT22;21994;48.204;16.516;2023-07-24T04:26:21;18.50;99.90
35894;DHT22;21994;48.204;16.516;2023-07-24T04:28:47;18.50;99.90
35894;DHT22;21994;48.204;16.516;2023-07-24T04:31:12;18.50;99.90
35894;DHT22;21994;48.204;16.516;2023-07-24T04:33:39;18.50;99.90
35894;DHT22;21994;48.204;16.516;2023-07-24T04:36:05;18.60;99.90
35894;DHT22;21994;48.204;16.516;2023-07-24T04:38:31;18.80;99.90
35894;DHT22;21994;48.204;16.516;2023-07-24T04:40:57;18.90;99.90
35894;DHT22;21994;48.204;16.516;2023-07-24T04:43:22;19.00;99.90
35894;DHT22;21994;48.204;16.516;2023-07-24T04:45:48;19.10;99.90
35894;DHT22;21994;48.204;16.516;2023-07-24T04:48:14;19.10;99.90
35894;DHT22;21994;48.204;16.516;2023-07-24T04:50:40;19.20;99.90
35894;DHT22;21994;48.204;16.516;2023-07-24T04:53:06;19.30;99.90
35894;DHT22;21994;48.204;16.516;2023-07-24T04:55:32;19.30;99.90
35894;DHT22;21994;48.204;16.516;2023-07-24T04:57:58;19.40;99.90
35894;DHT22;21994;48.204;16.516;2023-07-24T05:00:24;19.60;99.90
35894;DHT22;21994;48.204;16.516;2023-07-24T05:02:51;19.50;99.90
35894;DHT22;21994;48.204;16.516;2023-07-24T05:05:17;19.60;99.90
35894;DHT22;21994;48.204;16.516;2023-07-24T05:07:43;19.60;99.90
35894;DHT22;21994;48.204;16.516;2023-07-24T05:10:09;19.60;99.90
35894;DHT22;21994;48.204;16.516;2023-07-24T05:12:35;19.60;99.90
35894;DHT22;21994;48.204;16.516;2023-07-24T05:15:01;19.70;99.90
35894;DHT22;21994;48.204;16.516;2023-07-24T05:17:28;19.70;99.90
35894;DHT22;21994;48.204;16.516;2023-07-24T05:19:53;19.70;99.90
35894;DHT22;21994;48.204;16.516;2023-07-24T05:22:19;19.80;99.90
35894;DHT22;21994;48.204;16.516;2023-07-24T05:24:45;19.90;99.90
35894;DHT22;21994;48.204;16.516;2023-07-24T05:27:11;20.10;99.90
35894;DHT22;21994;48.204;16.516;2023-07-24T05:29:37;20.20;99.90
35894;DHT22;21994;48.204;16.516;2023-07-24T05:32:04;20.40;99.90
35894;DHT22;21994;48.204;16.516;2023-07-24T05:34:30;20.60;99.90
35894;DHT22;21994;48.204;16.516;2023-07-24T05:36:56;20.60;99.90
35894;DHT22;21994;48.204;16.516;2023-07-24T05:39:22;20.60;99.90
35894;DHT22;21994;48.204;16.516;2023-07-24T05:41:48;20.70;99.90
35894;DHT22;21994;48.204;16.516;2023-07-24T05:44:14;20.70;99.90
35894;DHT22;21994;48.204;16.516;2023-07-24T05:46:40;20.80;99.90
35894;DHT22;21994;48.204;16.516;2023-07-24T05:49:06;21.00;99.90
35894;DHT22;21994;48.204;16.516;2023-07-24T05:51:32;21.20;99.90
35894;DHT22;21994;48.204;16.516;2023-07-24T05:53:58;21.20;99.90
35894;DHT22;21994;48.204;16.516;2023-07-24T05:56:24;21.10;99.90
35894;DHT22;21994;48.204;16.516;2023-07-24T05:58:50;21.20;99.90
35894;DHT22;21994;48.204;16.516;2023-07-24T06:01:16;21.30;99.90
35894;DHT22;21994;48.204;16.516;2023-07-24T06:03:41;21.40;99.90
35894;DHT22;21994;48.204;16.516;2023-07-24T06:06:07;21.50;99.90
35894;DHT22;21994;48.204;16.516;2023-07-24T06:08:33;21.60;99.90
35894;DHT22;21994;48.204;16.516;2023-07-24T06:10:59;21.70;99.90
35894;DHT22;21994;48.204;16.516;2023-07-24T06:13:25;21.80;99.90
35894;DHT22;21994;48.204;16.516;2023-07-24T06:15:52;22.00;99.90
35894;DHT22;21994;48.204;16.516;2023-07-24T06:18:18;22.00;99.90
35894;DHT22;21994;48.204;16.516;2023-07-24T06:20:44;22.10;99.90
35894;DHT22;21994;48.204;16.516;2023-07-24T06:23:10;22.20;99.90
35894;DHT22;21994;48.204;16.516;2023-07-24T06:25:36;22.50;99.90
35894;DHT22;21994;48.204;16.516;2023-07-24T06:28:02;22.60;99.90
35894;DHT22;21994;48.204;16.516;2023-07-24T06:30:28;22.70;99.90
35894;DHT22;21994;48.204;16.516;2023-07-24T06:32:54;22.90;99.90
35894;DHT22;21994;48.204;16.516;2023-07-24T06:35:20;23.00;99.90
35894;DHT22;21994;48.204;16.516;2023-07-24T06:37:46;23.10;99.90
35894;DHT22;21994;48.204;16.516;2023-07-24T06:40:12;23.30;99.90
35894;DHT22;21994;48.204;16.516;2023-07-24T06:42:38;23.40;99.90
35894;DHT22;21994;48.204;16.516;2023-07-24T06:45:04;23.50;99.90
35894;DHT22;21994;48.204;16.516;2023-07-24T06:47:31;23.60;99.90
35894;DHT22;21994;48.204;16.516;2023-07-24T06:49:57;23.70;99.90
35894;DHT22;21994;48.204;16.516;2023-07-24T06:52:23;23.80;99.90
35894;DHT22;21994;48.204;16.516;2023-07-24T06:54:49;24.00;99.90
35894;DHT22;21994;48.204;16.516;2023-07-24T06:57:14;24.00;99.90
35894;DHT22;21994;48.204;16.516;2023-07-24T06:59:40;24.20;99.90
35894;DHT22;21994;48.204;16.516;2023-07-24T07:02:06;24.40;99.90
35894;DHT22;21994;48.204;16.516;2023-07-24T07:04:32;24.50;99.90
35894;DHT22;21994;48.204;16.516;2023-07-24T07:06:58;24.70;99.90
35894;DHT22;21994;48.204;16.516;2023-07-24T07:09:24;24.80;99.90
35894;DHT22;21994;48.204;16.516;2023-07-24T07:11:50;24.90;99.90
35894;DHT22;21994;48.204;16.516;2023-07-24T07:14:16;25.10;99.90
35894;DHT22;21994;48.204;16.516;2023-07-24T07:16:42;25.30;99.90
35894;DHT22;21994;48.204;16.516;2023-07-24T07:19:08;25.60;99.90
35894;DHT22;21994;48.204;16.516;2023-07-24T07:21:35;25.80;99.90
35894;DHT22;21994;48.204;16.516;2023-07-24T07:24:00;26.00;99.90
35894;DHT22;21994;48.204;16.516;2023-07-24T07:26:26;26.20;99.90
35894;DHT22;21994;48.204;16.516;2023-07-24T07:28:54;26.30;99.90
35894;DHT22;21994;48.204;16.516;2023-07-24T07:31:21;26.40;99.90
35894;DHT22;21994;48.204;16.516;2023-07-24T07:33:47;26.50;99.90
35894;DHT22;21994;48.204;16.516;2023-07-24T07:36:13;26.70;99.90
35894;DHT22;21994;48.204;16.516;2023-07-24T07:38:39;27.00;99.90
35894;DHT22;21994;48.204;16.516;2023-07-24T07:41:06;27.10;99.90
35894;DHT22;21994;48.204;16.516;2023-07-24T07:43:34;27.30;99.90
35894;DHT22;21994;48.204;16.516;2023-07-24T07:46:02;27.40;99.90
35894;DHT22;21994;48.204;16.516;2023-07-24T07:48:28;27.40;99.90
35894;DHT22;21994;48.204;16.516;2023-07-24T07:50:54;27.50;99.90
35894;DHT22;21994;48.204;16.516;2023-07-24T07:53:20;27.40;99.90
35894;DHT22;21994;48.204;16.516;2023-07-24T07:55:46;27.50;99.90
35894;DHT22;21994;48.204;16.516;2023-07-24T07:58:12;27.70;99.90
35894;DHT22;21994;48.204;16.516;2023-07-24T08:00:38;27.80;99.90
35894;DHT22;21994;48.204;16.516;2023-07-24T08:03:05;28.00;99.90
35894;DHT22;21994;48.204;16.516;2023-07-24T08:05:31;28.10;99.90
35894;DHT22;21994;48.204;16.516;2023-07-24T08:07:57;28.30;99.90
35894;DHT22;21994;48.204;16.516;2023-07-24T08:10:24;28.40;99.90
35894;DHT22;21994;48.204;16.516;2023-07-24T08:12:50;28.50;99.90
35894;DHT22;21994;48.204;16.516;2023-07-24T08:15:15;28.50;99.90
35894;DHT22;21994;48.204;16.516;2023-07-24T08:17:41;28.60;99.90
35894;DHT22;21994;48.204;16.516;2023-07-24T08:20:07;28.70;99.90
35894;DHT22;21994;48.204;16.516;2023-07-24T08:22:33;28.70;99.90
35894;DHT22;21994;48.204;16.516;2023-07-24T08:24:59;29.00;99.90
35894;DHT22;21994;48.204;16.516;2023-07-24T08:27:25;29.20;99.90
35894;DHT22;21994;48.204;16.516;2023-07-24T08:29:51;29.50;99.90
35894;DHT22;21994;48.204;16.516;2023-07-24T08:32:18;29.60;99.70
35894;DHT22;21994;48.204;16.516;2023-07-24T08:34:45;29.50;99.90
35894;DHT22;21994;48.204;16.516;2023-07-24T08:37:11;29.60;99.90
35894;DHT22;21994;48.204;16.516;2023-07-24T08:39:37;29.70;99.50
35894;DHT22;21994;48.204;16.516;2023-07-24T08:42:11;29.80;99.70
35894;DHT22;21994;48.204;16.516;2023-07-24T08:44:38;29.90;99.90
35894;DHT22;21994;48.204;16.516;2023-07-24T08:47:09;30.30;97.80
35894;DHT22;21994;48.204;16.516;2023-07-24T08:49:37;30.60;97.00
35894;DHT22;21994;48.204;16.516;2023-07-24T08:52:06;30.80;98.30
35894;DHT22;21994;48.204;16.516;2023-07-24T08:54:35;31.10;96.40
35894;DHT22;21994;48.204;16.516;2023-07-24T08:57:07;31.10;95.90
35894;DHT22;21994;48.204;16.516;2023-07-24T08:59:34;31.40;95.70
35894;DHT22;21994;48.204;16.516;2023-07-24T09:02:00;31.70;94.90
35894;DHT22;21994;48.204;16.516;2023-07-24T09:04:26;31.60;95.70
35894;DHT22;21994;48.204;16.516;2023-07-24T09:06:53;32.10;95.10
35894;DHT22;21994;48.204;16.516;2023-07-24T09:09:22;32.30;94.10
35894;DHT22;21994;48.204;16.516;2023-07-24T09:11:52;32.60;95.10
35894;DHT22;21994;48.204;16.516;2023-07-24T09:14:27;32.60;93.00
35894;DHT22;21994;48.204;16.516;2023-07-24T09:17:04;32.80;94.60
35894;DHT22;21994;48.204;16.516;2023-07-24T09:19:35;32.70;92.90
35894;DHT22;21994;48.204;16.516;2023-07-24T09:22:12;33.10;93.30
35894;DHT22;21994;48.204;16.516;2023-07-24T09:24:55;33.10;93.50
35894;DHT22;21994;48.204;16.516;2023-07-24T09:27:29;33.30;92.80
35894;DHT22;21994;48.204;16.516;2023-07-24T09:29:55;33.90;93.80
35894;DHT22;21994;48.204;16.516;2023-07-24T09:32:23;34.30;90.90
35894;DHT22;21994;48.204;16.516;2023-07-24T09:34:53;34.50;91.70
35894;DHT22;21994;48.204;16.516;2023-07-24T09:37:24;34.70;91.10
35894;DHT22;21994;48.204;16.516;2023-07-24T09:39:53;35.00;89.30
35894;DHT22;21994;48.204;16.516;2023-07-24T09:44:56;35.50;90.20
35894;DHT22;21994;48.204;16.516;2023-07-24T09:47:22;35.60;88.00
35894;DHT22;21994;48.204;16.516;2023-07-24T09:49:48;35.70;89.30
35894;DHT22;21994;48.204;16.516;2023-07-24T09:52:18;36.10;85.40
35894;DHT22;21994;48.204;16.516;2023-07-24T09:54:59;36.20;84.50
35894;DHT22;21994;48.204;16.516;2023-07-24T09:57:40;36.20;86.00
35894;DHT22;21994;48.204;16.516;2023-07-24T10:00:07;36.00;85.90
35894;DHT22;21994;48.204;16.516;2023-07-24T10:02:36;36.30;87.20
35894;DHT22;21994;48.204;16.516;2023-07-24T10:05:02;36.50;84.40
35894;DHT22;21994;48.204;16.516;2023-07-24T10:07:29;36.60;82.30
35894;DHT22;21994;48.204;16.516;2023-07-24T10:09:57;37.00;83.80
35894;DHT22;21994;48.204;16.516;2023-07-24T10:12:23;37.30;81.40
35894;DHT22;21994;48.204;16.516;2023-07-24T10:14:54;37.00;80.00
35894;DHT22;21994;48.204;16.516;2023-07-24T10:20:08;36.70;83.00
35894;DHT22;21994;48.204;16.516;2023-07-24T10:22:36;36.10;81.00
35894;DHT22;21994;48.204;16.516;2023-07-24T10:25:07;35.70;86.10
35894;DHT22;21994;48.204;16.516;2023-07-24T10:27:44;36.10;84.70
35894;DHT22;21994;48.204;16.516;2023-07-24T10:30:11;36.60;82.80
35894;DHT22;21994;48.204;16.516;2023-07-24T10:32:47;37.20;86.00
35894;DHT22;21994;48.204;16.516;2023-07-24T10:35:15;37.40;81.20
35894;DHT22;21994;48.204;16.516;2023-07-24T10:37:43;37.90;78.00
35894;DHT22;21994;48.204;16.516;2023-07-24T10:40:22;37.70;81.20
35894;DHT22;21994;48.204;16.516;2023-07-24T10:43:05;37.80;82.70
35894;DHT22;21994;48.204;16.516;2023-07-24T10:45:56;38.70;79.80
35894;DHT22;21994;48.204;16.516;2023-07-24T10:48:24;38.80;80.00
35894;DHT22;21994;48.204;16.516;2023-07-24T10:50:51;39.10;76.20
35894;DHT22;21994;48.204;16.516;2023-07-24T10:53:20;39.40;74.30
35894;DHT22;21994;48.204;16.516;2023-07-24T10:55:47;39.20;77.80
35894;DHT22;21994;48.204;16.516;2023-07-24T10:58:14;38.80;77.50
35894;DHT22;21994;48.204;16.516;2023-07-24T11:00:41;38.80;77.90
35894;DHT22;21994;48.204;16.516;2023-07-24T11:03:11;39.00;73.80
35894;DHT22;21994;48.204;16.516;2023-07-24T11:05:42;39.10;74.40
35894;DHT22;21994;48.204;16.516;2023-07-24T11:08:14;38.90;74.70
35894;DHT22;21994;48.204;16.516;2023-07-24T11:11:07;39.10;75.10
35894;DHT22;21994;48.204;16.516;2023-07-24T11:13:34;39.20;75.80
35894;DHT22;21994;48.204;16.516;2023-07-24T11:16:08;38.60;74.30
35894;DHT22;21994;48.204;16.516;2023-07-24T11:18:47;38.30;76.70
35894;DHT22;21994;48.204;16.516;2023-07-24T11:21:14;37.90;79.10
35894;DHT22;21994;48.204;16.516;2023-07-24T11:23:55;38.00;74.00
35894;DHT22;21994;48.204;16.516;2023-07-24T11:26:23;38.10;76.70
35894;DHT22;21994;48.204;16.516;2023-07-24T11:28:50;37.20;74.40
35894;DHT22;21994;48.204;16.516;2023-07-24T11:31:17;36.40;75.00
35894;DHT22;21994;48.204;16.516;2023-07-24T11:33:49;35.80;77.80
35894;DHT22;21994;48.204;16.516;2023-07-24T11:36:15;35.60;80.30
35894;DHT22;21994;48.204;16.516;2023-07-24T11:38:44;35.60;76.90
35894;DHT22;21994;48.204;16.516;2023-07-24T11:41:10;35.70;79.20
35894;DHT22;21994;48.204;16.516;2023-07-24T11:43:45;35.90;79.50
35894;DHT22;21994;48.204;16.516;2023-07-24T11:46:22;35.50;76.80
35894;DHT22;21994;48.204;16.516;2023-07-24T11:48:53;35.40;79.10
35894;DHT22;21994;48.204;16.516;2023-07-24T11:51:21;35.10;77.90
35894;DHT22;21994;48.204;16.516;2023-07-24T11:53:47;34.90;79.10
35894;DHT22;21994;48.204;16.516;2023-07-24T11:56:14;34.60;80.00
35894;DHT22;21994;48.204;16.516;2023-07-24T11:58:41;34.20;76.70
35894;DHT22;21994;48.204;16.516;2023-07-24T12:01:07;33.90;79.40
35894;DHT22;21994;48.204;16.516;2023-07-24T12:03:33;33.70;80.60
35894;DHT22;21994;48.204;16.516;2023-07-24T12:05:59;33.60;82.10
35894;DHT22;21994;48.204;16.516;2023-07-24T12:08:33;33.80;80.30
35894;DHT22;21994;48.204;16.516;2023-07-24T12:11:00;34.00;79.90
35894;DHT22;21994;48.204;16.516;2023-07-24T12:13:26;34.10;79.70
35894;DHT22;21994;48.204;16.516;2023-07-24T12:15:53;34.00;81.20
35894;DHT22;21994;48.204;16.516;2023-07-24T12:18:18;34.00;79.50
35894;DHT22;21994;48.204;16.516;2023-07-24T12:20:44;33.90;78.70
35894;DHT22;21994;48.204;16.516;2023-07-24T12:23:10;33.80;80.40
35894;DHT22;21994;48.204;16.516;2023-07-24T12:25:36;33.70;81.10
35894;DHT22;21994;48.204;16.516;2023-07-24T12:28:02;33.80;83.80
35894;DHT22;21994;48.204;16.516;2023-07-24T12:30:28;33.80;82.20
35894;DHT22;21994;48.204;16.516;2023-07-24T12:32:54;33.70;80.80
35894;DHT22;21994;48.204;16.516;2023-07-24T12:35:20;33.50;81.30
35894;DHT22;21994;48.204;16.516;2023-07-24T12:37:46;33.40;85.40
35894;DHT22;21994;48.204;16.516;2023-07-24T12:40:12;33.30;85.00
35894;DHT22;21994;48.204;16.516;2023-07-24T12:42:38;33.20;84.90
35894;DHT22;21994;48.204;16.516;2023-07-24T12:45:04;33.30;87.40
35894;DHT22;21994;48.204;16.516;2023-07-24T12:47:32;33.60;84.30
35894;DHT22;21994;48.204;16.516;2023-07-24T12:49:58;33.90;85.60
35894;DHT22;21994;48.204;16.516;2023-07-24T12:52:25;34.00;85.40
35894;DHT22;21994;48.204;16.516;2023-07-24T12:54:51;34.10;84.70
35894;DHT22;21994;48.204;16.516;2023-07-24T12:57:17;34.10;84.90
35894;DHT22;21994;48.204;16.516;2023-07-24T12:59:43;33.90;86.90
35894;DHT22;21994;48.204;16.516;2023-07-24T13:02:09;34.10;85.90
35894;DHT22;21994;48.204;16.516;2023-07-24T13:04:35;34.00;85.40
35894;DHT22;21994;48.204;16.516;2023-07-24T13:07:01;34.10;86.20
35894;DHT22;21994;48.204;16.516;2023-07-24T13:09:27;34.20;86.50
35894;DHT22;21994;48.204;16.516;2023-07-24T13:11:53;34.20;84.20
35894;DHT22;21994;48.204;16.516;2023-07-24T13:14:29;33.90;82.90
35894;DHT22;21994;48.204;16.516;2023-07-24T13:16:55;33.80;86.90
35894;DHT22;21994;48.204;16.516;2023-07-24T13:19:21;33.90;85.60
35894;DHT22;21994;48.204;16.516;2023-07-24T13:21:47;34.00;85.20
35894;DHT22;21994;48.204;16.516;2023-07-24T13:24:13;34.00;84.70
35894;DHT22;21994;48.204;16.516;2023-07-24T13:26:39;33.80;84.00
35894;DHT22;21994;48.204;16.516;2023-07-24T13:29:06;33.80;86.00
35894;DHT22;21994;48.204;16.516;2023-07-24T13:31:32;33.90;85.80
35894;DHT22;21994;48.204;16.516;2023-07-24T13:33:58;34.10;85.70
35894;DHT22;21994;48.204;16.516;2023-07-24T13:36:23;34.20;86.20
35894;DHT22;21994;48.204;16.516;2023-07-24T13:38:49;34.30;84.00
35894;DHT22;21994;48.204;16.516;2023-07-24T13:41:16;34.40;83.90
35894;DHT22;21994;48.204;16.516;2023-07-24T13:43:42;34.30;83.70
35894;DHT22;21994;48.204;16.516;2023-07-24T13:46:08;34.10;82.30
35894;DHT22;21994;48.204;16.516;2023-07-24T13:48:34;34.10;82.20
35894;DHT22;21994;48.204;16.516;2023-07-24T13:51:01;34.00;83.20
35894;DHT22;21994;48.204;16.516;2023-07-24T13:53:27;34.00;82.50
35894;DHT22;21994;48.204;16.516;2023-07-24T13:55:53;34.00;81.70
35894;DHT22;21994;48.204;16.516;2023-07-24T13:58:19;34.00;80.90
35894;DHT22;21994;48.204;16.516;2023-07-24T14:00:45;34.10;82.40
35894;DHT22;21994;48.204;16.516;2023-07-24T14:03:11;34.10;85.80
35894;DHT22;21994;48.204;16.516;2023-07-24T14:05:37;34.10;82.80
35894;DHT22;21994;48.204;16.516;2023-07-24T14:08:03;33.90;83.40
35894;DHT22;21994;48.204;16.516;2023-07-24T14:10:29;33.90;82.90
35894;DHT22;21994;48.204;16.516;2023-07-24T14:12:55;33.90;82.40
35894;DHT22;21994;48.204;16.516;2023-07-24T14:15:21;33.80;84.40
35894;DHT22;21994;48.204;16.516;2023-07-24T14:17:47;33.70;82.60
35894;DHT22;21994;48.204;16.516;2023-07-24T14:20:13;33.70;83.70
35894;DHT22;21994;48.204;16.516;2023-07-24T14:22:39;33.50;86.30
35894;DHT22;21994;48.204;16.516;2023-07-24T14:25:05;33.30;85.40
35894;DHT22;21994;48.204;16.516;2023-07-24T14:27:32;33.20;83.30
35894;DHT22;21994;48.204;16.516;2023-07-24T14:29:58;33.20;83.10
35894;DHT22;21994;48.204;16.516;2023-07-24T14:32:24;33.20;83.90
35894;DHT22;21994;48.204;16.516;2023-07-24T14:34:51;33.30;83.90
35894;DHT22;21994;48.204;16.516;2023-07-24T14:37:18;33.30;85.00
35894;DHT22;21994;48.204;16.516;2023-07-24T14:39:44;33.30;84.40
35894;DHT22;21994;48.204;16.516;2023-07-24T14:42:13;33.00;83.00
35894;DHT22;21994;48.204;16.516;2023-07-24T14:44:39;32.90;82.50
35894;DHT22;21994;48.204;16.516;2023-07-24T14:47:05;32.80;83.20
35894;DHT22;21994;48.204;16.516;2023-07-24T14:49:32;32.60;83.70
35894;DHT22;21994;48.204;16.516;2023-07-24T14:51:58;32.60;86.50
35894;DHT22;21994;48.204;16.516;2023-07-24T14:54:24;32.80;84.50
35894;DHT22;21994;48.204;16.516;2023-07-24T14:56:50;33.00;84.20
35894;DHT22;21994;48.204;16.516;2023-07-24T14:59:16;33.20;83.10
35894;DHT22;21994;48.204;16.516;2023-07-24T15:01:42;33.00;83.20
35894;DHT22;21994;48.204;16.516;2023-07-24T15:04:08;32.80;83.50
35894;DHT22;21994;48.204;16.516;2023-07-24T15:06:34;32.70;84.80
35894;DHT22;21994;48.204;16.516;2023-07-24T15:09:00;32.50;83.50
35894;DHT22;21994;48.204;16.516;2023-07-24T15:11:26;32.50;84.10
35894;DHT22;21994;48.204;16.516;2023-07-24T15:13:52;32.40;83.60
35894;DHT22;21994;48.204;16.516;2023-07-24T15:16:18;32.40;84.10
35894;DHT22;21994;48.204;16.516;2023-07-24T15:18:44;32.40;85.00
35894;DHT22;21994;48.204;16.516;2023-07-24T15:21:10;32.40;84.30
35894;DHT22;21994;48.204;16.516;2023-07-24T15:23:36;32.50;85.30
35894;DHT22;21994;48.204;16.516;2023-07-24T15:26:02;32.50;83.10